Limestone, TN (37681)

5:07 PM EDT on October 23, 2019 (GMT -0400)
Telford TN West | | Change Station
Active Advisory: Frost Advisory

Elev 1551 ft 36.25 °N, 82.57 °W | Updated 31 seconds ago

Clear
Clear
64.9 °F
Feels Like 64.9 °F
N
2.2
Wind Variable Wind from SE
Gusts 9.6 mph

Today
High -- | Low -- °F
--% Chance of Precip.
Yesterday
High -- | Low -- °F
Precip. -- in
Pressure 30.14 in
Visibility 10.0 miles
Clouds Clear
Dew Point 48 °F
Humidity 53%
Rainfall 0.00 in
Snow Depth Not available.
7:44 AM 6:44 PM
Waning Crescent, 24% visible
METAR KTRI 232053Z 21004KT 10SM CLR 17/M01 A3017 RMK AO2 SLP206 T01671006 56007
Pressure 30.14 in
Visibility 10.0 miles
Clouds Clear
Dew Point 48 °F
Humidity 53%
Rainfall 0.00 in
Snow Depth Not available.
7:44 AM 6:44 PM
Waning Crescent, 24% visible
METAR KTRI 232053Z 21004KT 10SM CLR 17/M01 A3017 RMK AO2 SLP206 T01671006 56007

Get Your Daily Forecast Email!

Thanks for signing up!

Be on the lookout for a verification email in your inbox.

You'll start receiving severe weather alerts in your inbox..

×

10-Day Weather Forecast

Almanac

Astronomy

Oct. 23, 2019 Rise Set
Actual Time
Civil Twilight
Nautical Twilight
Astronomical Twilight
Moon
Length of Visible Light
Length of Day
Tomorrow will be .
, % of the Moon is Illuminated

Today's Extremes

State Highs State Lows

Community

WunderPhotos

Category 6

Welcome to Category 6. This is the collective home for Weather Underground's featured writeups by Dr. Jeff Masters (right), Bob Henson (left), Chris Burt, and other regular contributors.

Nearby

Air Quality

  Air Quality AQ Index Pollutant
Not available.

Snow Depth

Station Depth Elevation

Earthquake Activity

City Distance Mag. Time & Date
Minimum magnitude displayed is 2.5.

Coastal Water Temperatures

Place Temperature

Stations

Nearby Weather Stations

Station Location Temp. Windchill Dew Point Humidity Wind Precip. Elev Updated Type
                   

Watches & Warnings

Frost Advisory
Issued: 3:17 PM EDT Oct. 23, 2019 – National Weather Service

... Frost advisory in effect from midnight tonight to 9 am EDT
Thursday...

* what... temperatures in the mid thirties will result in frost
formation.

* Where... portions of east Tennessee, southwest Virginia and
southwest North Carolina.

* When... from midnight tonight to 9 am EDT Thursday.

* Impacts... frost could kill sensitive outdoor vegetation if
left uncovered.

* Additional details... frost will mainly occur in the valleys and
the highest elevations in the mountains.

Precautionary/preparedness actions...

Take steps now to protect tender plants from the cold.